Terminal Aerodrome Forecast
Issued by NWS

Home | Current Version | Previous Version | Text Only | Print | Product List | Glossary On
Versions: 1 2 3 4 5 6 7 8 9 10 11 12 13
306
FTUS41 KBTV 082320
TAFMPV
TAF
KMPV 082320Z 0900/0924 04005KT P6SM VCSH OVC035
     FM090200 04005KT 2SM -SN BR OVC030
     FM091300 00000KT P6SM VCSH OVC025
     FM091800 00000KT P6SM VCSH OVC045=

USA.gov is the U.S. government's official web portal to all federal, state and local government web resources and services.